Time;durP1;ratioP1;P1;durP2;ratioP2;P2;SDS_P1;SDS_P2;PMS_P1;PMS_P2;Temp;Humidity;BMP_temperature;BMP_pressure;BME280_temperature;BME280_humidity;BME280_pressure;Samples;Min_cycle;Max_cycle;Signal;HPM_P1;HPM_P2
2023/07/28 00:02:58;;;;;;;3.20;2.30;;;;;;;20.23;80.70;98411.12;7285458;39;20272;31
2023/07/28 00:08:31;;;;;;;3.10;2.10;;;;;;;20.20;81.53;98421.75;7293766;39;20299;31
2023/07/28 00:13:48;;;;;;;4.00;2.35;;;;;;;20.22;81.00;98428.66;7281026;40;20248;31
2023/07/28 00:19:21;;;;;;;5.20;2.55;;;;;;;20.20;81.10;98424.47;7249484;40;20558;31
2023/07/28 00:29:59;;;;;;;2.70;2.30;;;;;;;20.18;79.98;98424.72;7163968;40;20311;31
2023/07/28 00:35:31;;;;;;;2.40;2.20;;;;;;;20.14;80.31;98409.88;7155741;40;20258;31
2023/07/28 00:40:48;;;;;;;2.30;2.10;;;;;;;20.12;81.40;98403.00;7165698;40;20415;31
2023/07/28 00:46:21;;;;;;;2.67;2.23;;;;;;;20.13;82.05;98404.66;7234778;40;20261;31
2023/07/28 00:51:53;;;;;;;2.65;2.10;;;;;;;20.11;80.44;98407.63;7192309;40;20277;31
2023/07/28 00:57:25;;;;;;;2.60;2.13;;;;;;;20.10;81.92;98410.59;7221813;40;20366;31
2023/07/28 01:02:58;;;;;;;3.33;2.20;;;;;;;20.08;81.74;98408.16;7251896;40;20344;31
2023/07/28 01:08:30;;;;;;;2.60;2.40;;;;;;;20.04;82.19;98417.09;7251571;40;20378;31
2023/07/28 01:13:48;;;;;;;3.70;2.40;;;;;;;20.06;81.72;98420.38;7238725;40;20347;31
2023/07/28 01:19:23;;;;;;;4.93;2.60;;;;;;;20.00;80.87;98415.94;7235408;40;20354;31
2023/07/28 01:24:57;;;;;;;3.50;2.70;;;;;;;19.96;81.13;98418.34;7213376;40;20254;31
2023/07/28 01:30:31;;;;;;;3.78;2.55;;;;;;;19.96;80.80;98407.37;7173508;40;20246;31
2023/07/28 01:35:52;;;;;;;5.37;2.40;;;;;;;19.94;81.60;98408.69;7206599;40;20542;31
2023/07/28 01:41:26;;;;;;;3.07;2.60;;;;;;;19.91;80.92;98415.50;7230187;40;20245;31
2023/07/28 01:46:59;;;;;;;3.33;2.50;;;;;;;19.89;80.91;98414.91;7229733;40;20330;31
2023/07/28 01:52:34;;;;;;;2.90;2.30;;;;;;;19.91;82.46;98414.66;7222276;40;20362;31
2023/07/28 01:58:10;;;;;;;2.60;2.23;;;;;;;19.91;81.40;98417.41;7178686;40;20289;31
2023/07/28 02:08:45;;;;;;;3.57;2.47;;;;;;;19.86;82.70;98407.19;7185065;40;20345;31
2023/07/28 02:14:06;;;;;;;2.55;2.30;;;;;;;19.84;82.93;98408.50;7205717;40;20237;31
2023/07/28 02:19:36;;;;;;;2.53;2.30;;;;;;;19.88;82.88;98410.50;7259723;40;20357;31
2023/07/28 02:25:09;;;;;;;2.90;2.13;;;;;;;19.89;81.73;98411.31;7276169;40;20236;31
2023/07/28 02:30:27;;;;;;;2.83;2.40;;;;;;;19.94;82.05;98406.78;7231126;40;20312;31
2023/07/28 02:41:04;;;;;;;2.97;2.30;;;;;;;19.92;81.79;98405.38;7261619;40;20378;31
2023/07/28 02:46:37;;;;;;;2.50;2.10;;;;;;;19.94;81.45;98403.22;7287544;39;21468;31
2023/07/28 02:51:58;;;;;;;3.30;2.30;;;;;;;19.94;82.19;98398.59;7300938;39;20260;31
2023/07/28 02:57:32;;;;;;;2.37;2.10;;;;;;;19.88;81.59;98409.69;7318801;39;20252;31
2023/07/28 03:03:04;;;;;;;3.10;2.43;;;;;;;19.86;82.92;98404.47;7233237;40;20238;31
2023/07/28 03:08:24;;;;;;;2.33;2.13;;;;;;;19.87;82.97;98411.59;7212569;40;20250;31
2023/07/28 03:13:57;;;;;;;2.60;1.90;;;;;;;19.79;83.15;98410.06;7218691;40;20304;31
2023/07/28 03:19:32;;;;;;;2.37;2.10;;;;;;;19.77;83.29;98406.75;7213486;40;20402;31
2023/07/28 03:25:07;;;;;;;2.63;2.10;;;;;;;19.71;84.30;98404.16;7180360;40;20242;31
2023/07/28 03:30:40;;;;;;;2.10;1.70;;;;;;;19.66;83.99;98407.63;7194712;40;20250;31
2023/07/28 03:36:00;;;;;;;2.15;1.80;;;;;;;19.66;85.29;98410.34;7179094;40;20353;31
2023/07/28 03:41:35;;;;;;;2.10;1.90;;;;;;;19.63;85.21;98410.84;7182632;40;20250;31
2023/07/28 03:47:09;;;;;;;2.00;1.80;;;;;;;19.58;85.16;98418.97;7213052;40;20257;31
2023/07/28 03:52:26;;;;;;;2.43;2.03;;;;;;;19.57;86.00;98417.28;7221402;40;20323;31
2023/07/28 03:57:55;;;;;;;1.80;1.70;;;;;;;19.53;86.75;98432.53;7248842;40;20237;31
2023/07/28 04:03:31;;;;;;;2.17;1.60;;;;;;;19.49;87.87;98435.97;7202449;40;20258;31
2023/07/28 04:09:03;;;;;;;1.70;1.60;;;;;;;19.44;87.65;98430.44;7181973;40;20269;31
2023/07/28 04:14:38;;;;;;;2.20;1.70;;;;;;;19.34;89.05;98429.13;7203954;40;20282;31
2023/07/28 04:20:14;;;;;;;1.70;1.53;;;;;;;19.32;89.00;98422.22;7154738;40;20358;31
2023/07/28 04:25:49;;;;;;;1.50;1.40;;;;;;;19.34;89.13;98436.47;7183273;40;20420;31
2023/07/28 04:36:29;;;;;;;2.70;1.80;;;;;;;19.30;90.22;98438.03;7228121;40;20303;31
2023/07/28 04:41:49;;;;;;;2.13;1.70;;;;;;;19.29;90.39;98434.47;7282745;39;20872;31
2023/07/28 04:47:10;;;;;;;1.80;1.50;;;;;;;19.33;89.73;98432.09;7299156;39;20268;31
2023/07/28 04:52:46;;;;;;;3.00;1.70;;;;;;;19.29;90.52;98428.19;7274499;40;20254;31
2023/07/28 04:58:18;;;;;;;3.00;1.80;;;;;;;19.26;91.21;98425.94;7295822;39;20256;31
2023/07/28 05:03:50;;;;;;;2.00;1.80;;;;;;;19.24;91.87;98428.06;7293062;39;20349;31
2023/07/28 05:09:23;;;;;;;1.60;1.50;;;;;;;19.22;91.54;98431.03;7026283;40;21361;31
2023/07/28 05:14:58;;;;;;;2.20;1.60;;;;;;;19.29;90.55;98452.78;7261545;40;20358;31
2023/07/28 05:20:18;;;;;;;2.03;1.30;;;;;;;19.32;91.12;98452.28;7237258;40;20343;31
2023/07/28 05:25:54;;;;;;;2.17;1.50;;;;;;;19.34;92.02;98450.16;7236480;40;20261;31
2023/07/28 05:31:11;;;;;;;1.40;1.30;;;;;;;19.45;90.57;98448.47;7156887;40;20243;31
2023/07/28 05:36:43;;;;;;;1.37;1.23;;;;;;;19.52;90.19;98450.03;7202556;40;20276;31
2023/07/28 05:42:17;;;;;;;1.70;1.40;;;;;;;19.52;91.21;98441.81;7243313;40;20260;31
2023/07/28 05:47:49;;;;;;;1.57;1.20;;;;;;;19.59;89.82;98466.28;7293618;39;20271;31
2023/07/28 05:53:07;;;;;;;1.53;1.33;;;;;;;19.59;89.52;98461.63;7192526;40;20277;31
2023/07/28 06:03:47;;;;;;;1.37;1.27;;;;;;;19.52;91.54;98485.56;7255704;40;20369;31
2023/07/28 06:09:07;;;;;;;1.40;1.30;;;;;;;19.55;90.74;98490.53;7233560;40;20237;31
2023/07/28 06:14:27;;;;;;;2.60;1.50;;;;;;;19.58;91.10;98489.22;7245772;39;20803;31
2023/07/28 06:20:00;;;;;;;1.63;1.40;;;;;;;19.58;90.91;98484.56;7313272;39;20411;31
2023/07/28 06:25:17;;;;;;;2.37;1.70;;;;;;;19.62;89.71;98488.47;7293084;39;20334;31
2023/07/28 06:30:35;;;;;;;3.00;1.90;;;;;;;19.59;90.49;98494.44;7298691;39;20271;31
2023/07/28 06:36:10;;;;;;;2.35;1.80;;;;;;;19.58;90.18;98506.44;7272588;40;20280;31
2023/07/28 06:46:47;;;;;;;2.00;1.80;;;;;;;19.71;89.95;98514.37;7240637;39;20276;31
2023/07/28 06:57:26;;;;;;;2.75;2.00;;;;;;;19.74;88.78;98524.84;7260058;40;20277;31
2023/07/28 07:08:05;;;;;;;2.33;2.07;;;;;;;19.88;89.17;98535.53;7292930;39;20276;31
2023/07/28 07:13:41;;;;;;;2.10;1.70;;;;;;;19.90;88.39;98541.56;7239673;40;20338;31
2023/07/28 07:19:02;;;;;;;2.37;2.10;;;;;;;19.92;89.11;98550.38;7212847;40;20258;31
2023/07/28 07:24:36;;;;;;;2.10;1.90;;;;;;;19.90;88.75;98549.78;7232222;40;20276;31
2023/07/28 07:30:12;;;;;;;2.20;1.70;;;;;;;19.88;89.39;98560.13;7222275;40;20264;31
2023/07/28 07:35:50;;;;;;;2.97;2.00;;;;;;;19.90;88.73;98547.03;7198437;40;20254;31
2023/07/28 07:41:08;;;;;;;2.93;2.20;;;;;;;19.99;88.55;98565.56;7195285;40;20258;31
2023/07/28 07:46:43;;;;;;;3.27;2.30;;;;;;;20.04;88.24;98562.09;7146900;40;20255;31
2023/07/28 07:52:18;;;;;;;3.17;2.20;;;;;;;20.14;89.03;98576.00;7157930;40;20263;31
2023/07/28 07:57:39;;;;;;;2.63;2.33;;;;;;;20.23;87.79;98586.28;7181970;40;20463;31
2023/07/28 08:08:19;;;;;;;3.10;2.00;;;;;;;20.23;87.00;98580.81;7209121;40;20275;31
2023/07/28 08:13:37;;;;;;;3.87;2.30;;;;;;;20.36;86.56;98582.47;7227914;40;21211;31
2023/07/28 08:18:54;;;;;;;3.00;2.60;;;;;;;20.42;86.27;98589.72;7234837;39;20248;31
2023/07/28 08:24:26;;;;;;;3.20;2.20;;;;;;;20.42;86.11;98595.19;7273783;40;20454;31
2023/07/28 08:34:51;;;;;;;3.60;2.70;;;;;;;20.62;85.67;98597.50;7301896;39;20278;31
2023/07/28 08:40:27;;;;;;;2.90;2.63;;;;;;;20.55;86.13;98597.63;7335460;39;20342;31
2023/07/28 08:45:57;;;;;;;2.87;2.57;;;;;;;20.52;86.78;98598.13;7241564;40;20249;31
2023/07/28 08:51:18;;;;;;;3.53;2.90;;;;;;;20.57;87.39;98608.34;7234695;40;21278;31
2023/07/28 08:56:51;;;;;;;3.00;2.70;;;;;;;20.66;86.35;98607.69;7224064;40;20409;31
2023/07/28 09:02:22;;;;;;;3.47;2.90;;;;;;;20.79;86.87;98606.56;7202673;40;20462;31
2023/07/28 09:07:40;;;;;;;7.97;3.20;;;;;;;21.02;84.99;98613.78;7181042;40;20391;31
2023/07/28 09:13:15;;;;;;;3.30;2.90;;;;;;;21.04;84.91;98608.91;7187595;40;20437;31
2023/07/28 09:18:48;;;;;;;5.17;2.97;;;;;;;21.11;83.92;98609.56;7250012;40;20276;31
2023/07/28 09:29:29;;;;;;;3.36;2.62;;;;;;;21.49;82.60;98604.19;7268636;39;21159;31
2023/07/28 09:35:22;;;;;;;3.17;2.50;;;;;;;21.43;83.09;98609.84;7259787;39;20359;31
2023/07/28 09:40:54;;;;;;;2.70;2.50;;;;;;;21.32;82.98;98614.34;7192377;40;20416;31
2023/07/28 09:46:27;;;;;;;2.62;2.42;;;;;;;21.22;84.05;98616.91;7213473;40;20272;31
2023/07/28 09:52:02;;;;;;;2.37;2.17;;;;;;;21.27;85.17;98613.44;7185363;40;20274;31
2023/07/28 10:02:39;;;;;;;2.58;2.37;;;;;;;21.38;83.86;98615.22;7225280;39;20298;31
2023/07/28 10:13:00;;;;;;;2.56;2.24;;;;;;;21.48;84.14;98626.38;7262129;39;21221;31
2023/07/28 10:23:34;;;;;;;2.00;1.90;;;;;;;21.45;83.18;98638.69;7298444;39;21238;31
2023/07/28 10:29:06;;;;;;;1.98;1.80;;;;;;;21.42;82.81;98641.06;7317052;39;20248;31
2023/07/28 10:34:38;;;;;;;1.80;1.70;;;;;;;21.42;82.92;98639.16;7274686;40;21637;31
2023/07/28 10:40:39;;;;;;;1.70;1.60;;;;;;;21.48;81.74;98640.09;7234647;40;20323;31
2023/07/28 10:46:10;;;;;;;1.85;1.60;;;;;;;21.50;82.11;98635.19;7234541;40;20293;31
2023/07/28 10:51:42;;;;;;;2.53;1.50;;;;;;;21.65;82.17;98635.41;7234431;39;20249;31
2023/07/28 10:57:19;;;;;;;1.70;1.40;;;;;;;21.84;81.65;98646.94;7202515;40;20285;31
2023/07/28 11:02:51;;;;;;;1.40;1.30;;;;;;;21.85;80.84;98645.88;7176166;40;20246;31
2023/07/28 11:08:23;;;;;;;1.98;1.55;;;;;;;21.80;81.05;98632.91;7178206;40;20443;31
2023/07/28 11:13:59;;;;;;;3.08;1.48;;;;;;;21.84;81.42;98639.53;7194103;40;20360;31
2023/07/28 11:19:31;;;;;;;2.03;1.40;;;;;;;21.66;83.07;98647.22;7131897;40;20379;31
2023/07/28 11:25:03;;;;;;;1.80;1.60;;;;;;;21.49;84.63;98641.75;7173939;40;20332;31
2023/07/28 11:30:34;;;;;;;2.05;1.60;;;;;;;21.43;84.22;98646.31;7134772;40;20350;31
2023/07/28 11:35:51;;;;;;;1.70;1.50;;;;;;;21.33;84.09;98659.00;7195048;40;20265;31
2023/07/28 11:41:23;;;;;;;2.25;1.60;;;;;;;21.32;84.57;98654.63;7187348;40;20270;31
2023/07/28 11:46:56;;;;;;;1.60;1.50;;;;;;;21.30;84.95;98656.78;7189760;40;20269;31
2023/07/28 11:52:31;;;;;;;2.10;1.80;;;;;;;21.25;83.85;98659.44;7241833;40;20326;31
2023/07/28 11:58:04;;;;;;;2.53;1.90;;;;;;;21.23;84.95;98662.44;6998256;40;22017;31
2023/07/28 12:03:34;;;;;;;3.15;1.90;;;;;;;21.16;85.94;98661.75;7240208;40;21214;31
2023/07/28 12:09:08;;;;;;;2.25;1.80;;;;;;;21.10;86.96;98651.78;7203229;40;20274;31
2023/07/28 12:14:46;;;;;;;2.72;2.10;;;;;;;21.01;86.45;98654.09;7185794;40;20281;31
2023/07/28 12:20:20;;;;;;;3.35;2.12;;;;;;;21.00;87.50;98651.59;7166708;40;20341;31
2023/07/28 12:25:53;;;;;;;2.20;2.00;;;;;;;21.04;87.99;98644.53;7185020;40;20270;31
2023/07/28 12:31:09;;;;;;;2.95;1.90;;;;;;;21.15;87.56;98648.31;7203363;40;20273;31
2023/07/28 12:36:45;;;;;;;2.33;1.95;;;;;;;21.16;87.78;98656.28;7227586;40;20381;31
2023/07/28 12:42:02;;;;;;;3.12;2.22;;;;;;;21.04;88.36;98656.31;7234701;40;20280;31
2023/07/28 12:47:20;;;;;;;4.78;2.25;;;;;;;21.01;89.30;98664.22;7190013;40;20351;31
2023/07/28 12:52:53;;;;;;;2.60;2.00;;;;;;;20.94;88.25;98655.31;7196054;40;20261;31
2023/07/28 12:58:11;;;;;;;3.53;1.87;;;;;;;20.91;88.75;98669.50;7203052;40;20258;31
2023/07/28 13:08:48;;;;;;;2.15;1.90;;;;;;;20.88;89.12;98670.00;7244102;40;20277;31
2023/07/28 13:19:09;;;;;;;2.10;1.70;;;;;;;20.95;89.10;98674.25;7308160;39;20272;31
2023/07/28 13:24:43;;;;;;;1.98;1.65;;;;;;;20.82;88.91;98670.97;7313382;39;20243;31
2023/07/28 13:30:14;;;;;;;1.95;1.60;;;;;;;20.82;88.55;98652.63;7235562;40;20325;31
2023/07/28 13:35:32;;;;;;;2.00;1.80;;;;;;;20.88;88.29;98645.34;7194289;40;20280;31
2023/07/28 13:41:05;;;;;;;1.60;1.50;;;;;;;20.86;89.13;98669.41;7182581;40;20329;31
2023/07/28 13:46:22;;;;;;;2.05;1.73;;;;;;;20.78;89.00;98661.59;7214640;40;20379;31
2023/07/28 13:57:03;;;;;;;1.77;1.40;;;;;;;20.69;88.92;98655.66;7280526;40;20269;31
2023/07/28 14:02:35;;;;;;;2.23;1.50;;;;;;;20.69;88.63;98656.50;7236390;40;20252;31
2023/07/28 14:08:07;;;;;;;1.73;1.60;;;;;;;20.72;89.37;98654.34;7228350;40;20340;31
2023/07/28 14:13:41;;;;;;;1.80;1.60;;;;;;;20.73;89.40;98656.00;7254636;40;20269;31
2023/07/28 14:18:59;;;;;;;6.40;1.80;;;;;;;20.70;88.46;98660.06;7223067;40;20354;31
2023/07/28 14:24:16;;;;;;;2.47;1.67;;;;;;;20.69;88.37;98667.47;7152818;40;20360;31
2023/07/28 14:29:48;;;;;;;3.05;1.87;;;;;;;20.73;88.34;98669.69;7221439;40;20261;31
2023/07/28 14:35:22;;;;;;;2.10;1.60;;;;;;;20.66;87.54;98667.13;7222132;40;20246;31
2023/07/28 14:40:44;;;;;;;2.00;1.80;;;;;;;20.66;88.16;98664.38;7219552;40;20359;31
2023/07/28 14:46:16;;;;;;;2.40;1.90;;;;;;;20.65;88.19;98671.78;7217989;40;20276;31
2023/07/28 14:51:51;;;;;;;3.33;1.90;;;;;;;20.66;88.89;98672.59;7155004;40;20254;31
2023/07/28 14:57:14;;;;;;;2.20;1.90;;;;;;;20.67;87.51;98669.59;7161552;40;20274;31
2023/07/28 15:02:41;;;;;;;2.25;2.05;;;;;;;20.63;89.12;98659.37;7182658;40;20264;31
2023/07/28 15:08:00;;;;;;;2.00;1.80;;;;;;;20.73;88.08;98667.78;7239343;40;20242;31
2023/07/28 15:13:17;;;;;;;2.20;2.00;;;;;;;20.76;88.53;98661.81;7274125;40;20261;31
2023/07/28 15:19:04;;;;;;;3.77;2.00;;;;;;;20.76;87.72;98658.25;7192913;40;20282;31
2023/07/28 15:24:38;;;;;;;3.07;2.13;;;;;;;20.70;87.80;98657.34;7129989;40;20267;31
2023/07/28 15:35:19;;;;;;;2.40;2.20;;;;;;;20.67;88.99;98655.91;7194516;40;20390;31
2023/07/28 15:45:44;;;;;;;2.50;2.30;;;;;;;20.65;88.91;98666.28;7250477;40;20272;31
2023/07/28 15:56:25;;;;;;;3.00;2.60;;;;;;;20.62;88.89;98674.16;7275279;40;20275;31
2023/07/28 16:07:04;;;;;;;4.25;2.50;;;;;;;20.67;89.24;98687.94;7272481;39;20451;31
2023/07/28 16:17:41;;;;;;;2.87;2.63;;;;;;;20.66;89.39;98678.09;7244599;40;20334;31
2023/07/28 16:23:16;;;;;;;2.80;2.30;;;;;;;20.63;89.08;98667.59;7231175;40;20385;31
2023/07/28 16:28:36;;;;;;;2.90;2.60;;;;;;;20.71;89.83;98669.97;7258871;40;20264;31
2023/07/28 16:39:16;;;;;;;2.52;2.32;;;;;;;20.81;89.97;98663.81;7266328;39;21148;31
2023/07/28 16:49:55;;;;;;;3.13;2.67;;;;;;;20.83;90.84;98673.47;7171086;40;20382;31
2023/07/28 17:00:35;;;;;;;3.70;2.80;;;;;;;20.89;88.90;98658.78;7288818;39;20712;31
2023/07/28 17:10:59;;;;;;;5.53;4.50;;;;;;;20.95;89.58;98670.66;7214420;40;20274;31
2023/07/28 17:21:36;;;;;;;3.10;2.80;;;;;;;20.93;90.29;98681.06;7284385;39;20271;31
2023/07/28 17:32:12;;;;;;;3.30;3.00;;;;;;;20.95;90.30;98689.84;7309388;39;20257;31
2023/07/28 17:37:49;;;;;;;3.10;2.80;;;;;;;20.86;91.06;98677.63;7276882;40;20265;31
2023/07/28 17:43:06;;;;;;;3.35;2.40;;;;;;;20.93;90.65;98678.31;7174494;40;20277;31
2023/07/28 17:48:23;;;;;;;3.13;2.40;;;;;;;20.92;89.50;98676.66;7219616;40;20268;31
2023/07/28 17:53:57;;;;;;;2.90;2.60;;;;;;;20.88;90.83;98668.09;7204422;40;20324;31
2023/07/28 17:59:29;;;;;;;2.60;2.40;;;;;;;20.92;90.88;98665.69;7169918;40;20242;31
2023/07/28 18:05:01;;;;;;;3.87;2.35;;;;;;;20.90;90.82;98663.19;7181681;40;20278;31
2023/07/28 18:10:32;;;;;;;2.53;2.33;;;;;;;20.87;90.35;98657.38;7190426;40;20359;31
2023/07/28 18:21:11;;;;;;;2.73;2.30;;;;;;;20.94;90.02;98669.84;7233056;40;20665;31
2023/07/28 18:26:47;;;;;;;2.73;2.30;;;;;;;20.93;90.49;98667.37;7193159;40;21878;31
2023/07/28 18:32:06;;;;;;;2.93;2.20;;;;;;;20.94;89.79;98672.56;7231588;40;20281;31
2023/07/28 18:42:45;;;;;;;7.50;5.50;;;;;;;20.94;90.11;98678.06;7261623;40;20276;31
2023/07/28 18:53:24;;;;;;;3.40;3.10;;;;;;;20.93;90.35;98689.28;7271967;40;20273;31
2023/07/28 19:04:02;;;;;;;3.30;2.80;;;;;;;20.88;90.16;98691.91;7291058;39;20426;31
2023/07/28 19:14:23;;;;;;;4.45;2.50;;;;;;;20.79;90.98;98693.38;7271554;40;20274;31
2023/07/28 19:25:03;;;;;;;6.93;5.87;;;;;;;20.64;92.31;98696.66;7275250;39;20414;31
2023/07/28 19:30:33;;;;;;;4.40;4.00;;;;;;;20.61;91.22;98708.09;7316442;39;20311;31
2023/07/28 19:35:50;;;;;;;2.40;2.20;;;;;;;20.60;90.76;98704.53;7047773;40;20268;31
2023/07/28 19:46:27;;;;;;;3.00;2.00;;;;;;;20.61;90.88;98708.94;7226703;40;20429;31
2023/07/28 19:51:43;;;;;;;3.17;2.20;;;;;;;20.61;90.55;98702.63;7230821;40;21218;31
2023/07/28 19:57:15;;;;;;;2.13;1.80;;;;;;;20.57;91.08;98713.25;7292128;39;20295;31
2023/07/28 20:02:51;;;;;;;2.30;2.10;;;;;;;20.54;90.86;98724.66;7292962;39;20389;31
2023/07/28 20:08:23;;;;;;;2.73;1.90;;;;;;;20.46;90.77;98725.03;7286018;40;20368;31
2023/07/28 20:13:40;;;;;;;2.57;2.10;;;;;;;20.43;90.78;98713.75;7252045;40;20253;31
2023/07/28 20:19:13;;;;;;;2.20;2.00;;;;;;;20.45;89.61;98715.16;7243391;40;20438;31
2023/07/28 20:24:50;;;;;;;2.10;1.90;;;;;;;20.44;89.92;98708.03;7212343;40;20366;31
2023/07/28 20:30:21;;;;;;;2.93;1.90;;;;;;;20.45;90.27;98704.19;7234479;40;20293;31
2023/07/28 20:35:54;;;;;;;2.20;2.00;;;;;;;20.42;89.45;98693.75;7230799;40;20242;31
2023/07/28 20:41:12;;;;;;;2.57;2.10;;;;;;;20.37;90.43;98687.31;7221171;40;20296;31
2023/07/28 20:46:31;;;;;;;2.37;2.13;;;;;;;20.34;90.35;98696.03;7213926;40;20246;31
2023/07/28 20:52:02;;;;;;;4.67;2.30;;;;;;;20.20;90.37;98695.44;7208830;40;20354;31
2023/07/28 20:57:37;;;;;;;2.07;1.87;;;;;;;20.23;90.35;98692.19;7182819;40;20289;31
2023/07/28 21:02:55;;;;;;;2.43;2.00;;;;;;;20.24;90.50;98702.06;7189942;40;20374;31
2023/07/28 21:08:27;;;;;;;4.25;2.20;;;;;;;20.20;90.73;98695.44;7202758;40;20242;31
2023/07/28 21:13:45;;;;;;;5.90;2.40;;;;;;;20.15;91.58;98696.16;7228562;40;20238;31
2023/07/28 21:19:18;;;;;;;4.27;2.20;;;;;;;20.16;91.91;98694.25;7244997;40;20460;31
2023/07/28 21:24:50;;;;;;;2.67;2.47;;;;;;;20.13;90.49;98684.63;7230897;40;20253;31
2023/07/28 21:30:20;;;;;;;2.30;1.80;;;;;;;20.09;90.17;98685.34;7213995;40;20327;31
2023/07/28 21:35:41;;;;;;;2.20;1.95;;;;;;;20.09;90.81;98690.81;7221594;40;20281;31
2023/07/28 21:41:13;;;;;;;2.23;1.97;;;;;;;20.07;92.09;98690.22;7243129;40;20483;31
2023/07/28 21:46:48;;;;;;;2.20;1.83;;;;;;;20.09;90.72;98677.13;7288416;39;20253;31
2023/07/28 21:52:20;;;;;;;2.10;1.80;;;;;;;20.14;91.98;98685.47;7238765;40;20261;31
2023/07/28 21:57:53;;;;;;;2.13;1.93;;;;;;;20.12;91.91;98687.59;7213055;40;20355;31
2023/07/28 22:03:25;;;;;;;2.70;1.60;;;;;;;20.10;91.67;98678.78;7211851;40;20268;31
2023/07/28 22:08:43;;;;;;;2.65;1.60;;;;;;;20.12;91.79;98693.06;7204400;40;20258;31
2023/07/28 22:14:17;;;;;;;3.17;1.80;;;;;;;20.08;91.79;98691.88;7195175;40;20351;31
2023/07/28 22:19:33;;;;;;;2.85;1.60;;;;;;;20.10;92.45;98684.25;7243602;40;20272;31
2023/07/28 22:25:06;;;;;;;1.83;1.70;;;;;;;20.15;92.37;98681.63;7207995;40;20347;31
2023/07/28 22:30:39;;;;;;;5.50;1.50;;;;;;;20.10;91.88;98673.31;7225393;40;20436;31
2023/07/28 22:35:57;;;;;;;2.10;1.50;;;;;;;20.14;93.17;98671.78;7243536;40;20366;31
2023/07/28 22:41:29;;;;;;;2.45;1.50;;;;;;;20.21;92.59;98670.56;7234610;40;21183;31
2023/07/28 22:47:02;;;;;;;2.50;1.40;;;;;;;20.25;91.82;98668.16;7237583;40;20265;31
2023/07/28 22:52:37;;;;;;;1.70;1.50;;;;;;;20.23;90.64;98662.94;7204446;40;20293;31
2023/07/28 22:58:09;;;;;;;4.17;1.60;;;;;;;20.27;90.56;98663.28;7193067;40;20266;31
2023/07/28 23:03:45;;;;;;;1.60;1.50;;;;;;;20.28;90.14;98659.47;7184410;40;20288;31
2023/07/28 23:09:05;;;;;;;2.05;1.50;;;;;;;20.31;91.59;98652.72;7159792;40;20243;31
2023/07/28 23:14:37;;;;;;;1.70;1.60;;;;;;;20.30;92.12;98646.41;7150473;40;20369;31
2023/07/28 23:20:09;;;;;;;1.95;1.50;;;;;;;20.25;91.51;98654.47;7173736;40;20259;31
2023/07/28 23:25:28;;;;;;;3.83;1.60;;;;;;;20.24;91.73;98644.59;7191305;40;20346;31
2023/07/28 23:30:45;;;;;;;2.00;1.40;;;;;;;20.23;90.90;98641.03;7181762;40;20266;31
2023/07/28 23:36:19;;;;;;;2.33;1.63;;;;;;;20.29;90.73;98643.87;7168340;40;20239;31
2023/07/28 23:41:51;;;;;;;1.93;1.70;;;;;;;20.25;90.56;98640.78;7181261;40;20254;31
2023/07/28 23:47:23;;;;;;;3.50;2.04;;;;;;;20.15;90.68;98632.38;7252428;40;20244;31
2023/07/28 23:52:59;;;;;;;2.23;1.60;;;;;;;20.00;90.47;98623.84;7256137;40;20250;31
2023/07/28 23:58:31;;;;;;;2.50;1.60;;;;;;;19.91;90.79;98625.28;7252655;40;20260;31
